createdAt,value
2022-10-19T00:01:22.495Z,14.26
2022-10-19T00:03:56.003Z,14.29
2022-10-19T00:06:30.517Z,14.27
2022-10-19T00:09:05.959Z,14.24
2022-10-19T00:11:36.283Z,14.24
2022-10-19T00:14:05.235Z,14.21
2022-10-19T00:16:37.137Z,14.22
2022-10-19T00:19:09.611Z,14.24
2022-10-19T00:21:39.383Z,14.24
2022-10-19T00:24:08.315Z,14.25
2022-10-19T00:26:36.933Z,14.29
2022-10-19T00:29:07.561Z,14.30
2022-10-19T00:31:35.805Z,14.34
2022-10-19T00:34:03.879Z,14.41
2022-10-19T00:36:35.940Z,14.42
2022-10-19T00:39:06.367Z,14.44
2022-10-19T00:41:36.488Z,14.46
2022-10-19T00:44:06.403Z,14.46
2022-10-19T00:46:37.660Z,14.48
2022-10-19T00:49:17.911Z,14.53
2022-10-19T00:51:49.664Z,14.54
2022-10-19T00:54:18.247Z,14.51
2022-10-19T00:56:49.289Z,14.47
2022-10-19T00:59:21.044Z,14.45
2022-10-19T01:01:49.631Z,14.46
2022-10-19T01:04:20.361Z,14.46
2022-10-19T01:06:48.534Z,14.40
2022-10-19T01:09:17.528Z,14.34
2022-10-19T01:12:04.340Z,14.32
2022-10-19T01:14:47.975Z,14.32
2022-10-19T01:17:18.813Z,14.31
2022-10-19T01:20:01.836Z,14.34
2022-10-19T01:22:38.608Z,14.32
2022-10-19T01:25:32.896Z,14.30
2022-10-19T01:28:27.200Z,14.27
2022-10-19T01:31:27.509Z,14.23
2022-10-19T01:34:08.995Z,14.20
2022-10-19T01:36:47.203Z,14.20
2022-10-19T01:39:45.345Z,14.11
2022-10-19T01:42:32.705Z,14.06
2022-10-19T01:45:19.820Z,14.03
2022-10-19T01:48:01.614Z,14.00
2022-10-19T01:50:39.516Z,14.03
2022-10-19T01:53:11.071Z,14.03
2022-10-19T01:55:43.134Z,14.01
2022-10-19T01:58:17.453Z,14.00
2022-10-19T02:00:48.912Z,14.00
2022-10-19T02:03:18.614Z,14.03
2022-10-19T02:05:49.550Z,14.04
2022-10-19T02:08:24.279Z,14.02
2022-10-19T02:10:53.994Z,13.97
2022-10-19T02:13:23.904Z,13.94
2022-10-19T02:15:55.150Z,13.89
2022-10-19T02:18:30.081Z,13.92
2022-10-19T02:20:58.665Z,13.96
2022-10-19T02:23:27.964Z,13.93
2022-10-19T02:25:57.163Z,13.88
2022-10-19T02:28:28.106Z,13.81
2022-10-19T02:30:57.401Z,13.78
2022-10-19T02:33:26.292Z,13.77
2022-10-19T02:35:54.670Z,13.82
2022-10-19T02:38:24.383Z,13.85
2022-10-19T02:41:08.835Z,13.87
2022-10-19T02:43:39.979Z,13.85
2022-10-19T02:46:16.754Z,13.85
2022-10-19T02:48:44.831Z,13.83
2022-10-19T02:51:33.684Z,13.80
2022-10-19T02:54:05.007Z,13.76
2022-10-19T02:56:35.485Z,13.70
2022-10-19T02:59:03.939Z,13.66
2022-10-19T03:01:32.221Z,13.63
2022-10-19T03:04:00.188Z,13.56
2022-10-19T03:06:28.256Z,13.53
2022-10-19T03:08:56.328Z,13.51
2022-10-19T03:11:24.400Z,13.48
2022-10-19T03:13:52.372Z,13.49
2022-10-19T03:16:20.542Z,13.47
2022-10-19T03:18:49.830Z,13.54
2022-10-19T03:21:19.141Z,13.55
2022-10-19T03:23:47.214Z,13.57
2022-10-19T03:26:17.538Z,13.53
2022-10-19T03:28:46.012Z,13.53
2022-10-19T03:31:14.192Z,13.49
2022-10-19T03:33:42.266Z,13.50
2022-10-19T03:36:20.587Z,13.48
2022-10-19T03:38:56.429Z,13.44
2022-10-19T03:41:27.062Z,13.39
2022-10-19T03:43:55.180Z,13.36
2022-10-19T03:46:23.715Z,13.38
2022-10-19T03:48:51.703Z,13.38
2022-10-19T03:51:26.074Z,13.36
2022-10-19T03:53:56.330Z,13.26
2022-10-19T03:56:26.140Z,13.17
2022-10-19T03:58:55.951Z,13.14
2022-10-19T04:01:27.391Z,13.11
2022-10-19T04:03:57.419Z,13.08
2022-10-19T04:06:37.678Z,13.05
2022-10-19T04:09:08.000Z,13.01
2022-10-19T04:11:36.576Z,12.96
2022-10-19T04:14:04.887Z,12.89
2022-10-19T04:16:33.571Z,12.92
2022-10-19T04:19:01.924Z,12.90
2022-10-19T04:21:39.932Z,12.85
2022-10-19T04:24:14.042Z,12.77
2022-10-19T04:29:29.692Z,12.77
2022-10-19T04:31:59.785Z,12.82
2022-10-19T04:34:27.937Z,12.80
2022-10-19T04:36:59.586Z,12.79
2022-10-19T04:39:28.285Z,12.77
2022-10-19T04:41:56.450Z,12.76
2022-10-19T04:46:57.301Z,12.86
2022-10-19T04:49:25.289Z,12.84
2022-10-19T04:51:53.239Z,12.87
2022-10-19T04:54:21.310Z,12.86
2022-10-19T04:56:50.304Z,12.86
2022-10-19T04:59:18.273Z,12.93
2022-10-19T05:01:47.472Z,12.94
2022-10-19T05:04:15.746Z,12.96
2022-10-19T05:06:43.767Z,12.95
2022-10-19T05:09:12.198Z,12.94
2022-10-19T05:11:40.272Z,12.94
2022-10-19T05:14:08.855Z,12.97
2022-10-19T05:16:36.923Z,12.95
2022-10-19T05:19:04.996Z,12.94
2022-10-19T05:21:33.356Z,12.96
2022-10-19T05:24:01.341Z,12.98
2022-10-19T05:26:30.436Z,12.98
2022-10-19T05:29:02.753Z,12.98
2022-10-19T05:31:33.645Z,12.99
2022-10-19T05:34:04.081Z,12.98
2022-10-19T05:36:38.188Z,12.93
2022-10-19T05:39:09.328Z,12.89
2022-10-19T05:41:37.604Z,12.88
2022-10-19T05:44:05.781Z,12.88
2022-10-19T05:46:34.634Z,12.89
2022-10-19T05:49:02.842Z,12.92
2022-10-19T05:51:30.913Z,12.90
2022-10-19T05:53:59.090Z,12.88
2022-10-19T05:56:30.852Z,12.87
2022-10-19T05:59:00.044Z,12.88
2022-10-19T06:01:29.697Z,12.87
2022-10-19T06:03:59.770Z,12.87
2022-10-19T06:06:28.250Z,12.92
2022-10-19T06:08:57.244Z,12.88
2022-10-19T06:11:31.257Z,12.84
2022-10-19T06:13:59.940Z,12.82
2022-10-19T06:16:30.470Z,12.82
2022-10-19T06:18:59.671Z,12.78
2022-10-19T06:21:30.196Z,12.74
2022-10-19T06:24:01.033Z,12.71
2022-10-19T06:26:30.130Z,12.73
2022-10-19T06:29:00.804Z,12.71
2022-10-19T06:31:34.155Z,12.67
2022-10-19T06:34:02.690Z,12.65
2022-10-19T06:36:31.682Z,12.59
2022-10-19T06:39:01.879Z,12.57
2022-10-19T06:41:31.471Z,12.56
2022-10-19T06:44:02.594Z,12.58
2022-10-19T06:46:30.779Z,12.57
2022-10-19T06:49:02.239Z,12.54
2022-10-19T06:51:32.526Z,12.52
2022-10-19T06:54:00.951Z,12.56
2022-10-19T06:56:29.103Z,12.55
2022-10-19T06:58:58.289Z,12.52
2022-10-19T07:01:26.552Z,12.52
2022-10-19T07:03:55.468Z,12.56
2022-10-19T07:06:23.969Z,12.59
2022-10-19T07:08:52.635Z,12.61
2022-10-19T07:11:22.780Z,12.65
2022-10-19T07:13:53.445Z,12.70
2022-10-19T07:16:22.277Z,12.75
2022-10-19T07:18:52.499Z,12.81
2022-10-19T07:21:22.719Z,12.90
2022-10-19T07:23:51.630Z,12.91
2022-10-19T07:26:28.969Z,12.91
2022-10-19T07:28:57.589Z,12.91
2022-10-19T07:31:28.628Z,12.92
2022-10-19T07:33:59.357Z,12.97
2022-10-19T07:36:29.450Z,12.99
2022-10-19T07:38:57.958Z,13.07
2022-10-19T07:41:26.839Z,13.12
2022-10-19T07:43:55.715Z,13.12
2022-10-19T07:46:37.534Z,13.10
2022-10-19T07:49:11.322Z,13.10
2022-10-19T07:51:40.434Z,13.09
2022-10-19T07:54:09.174Z,13.07
2022-10-19T07:56:37.492Z,13.08
2022-10-19T07:59:05.955Z,13.06
2022-10-19T08:01:38.437Z,13.05
2022-10-19T08:06:54.670Z,13.07
2022-10-19T08:09:51.051Z,13.07
2022-10-19T08:12:14.833Z,13.07
2022-10-19T08:14:43.354Z,13.08
2022-10-19T08:17:12.146Z,13.07
2022-10-19T08:19:43.615Z,13.04
2022-10-19T08:22:12.176Z,13.04
2022-10-19T08:24:40.247Z,13.01
2022-10-19T08:27:08.465Z,12.99
2022-10-19T08:29:36.697Z,13.03
2022-10-19T08:32:05.667Z,13.00
2022-10-19T08:34:34.786Z,12.98
2022-10-19T08:37:10.273Z,12.97
2022-10-19T08:39:48.238Z,12.95
2022-10-19T08:42:26.536Z,12.94
2022-10-19T08:45:03.532Z,12.90
2022-10-19T08:48:14.708Z,12.88
2022-10-19T08:50:45.442Z,12.87
2022-10-19T08:53:39.421Z,12.87
2022-10-19T08:59:47.144Z,12.95
2022-10-19T09:02:56.685Z,12.93
2022-10-19T09:05:38.490Z,12.89
2022-10-19T09:08:14.152Z,12.86
2022-10-19T09:10:50.801Z,12.83
2022-10-19T09:14:00.457Z,12.80
2022-10-19T09:16:31.795Z,12.77
2022-10-19T09:18:59.867Z,12.73
2022-10-19T09:21:57.327Z,12.74
2022-10-19T09:24:50.592Z,12.83
2022-10-19T09:27:29.416Z,12.86
2022-10-19T09:30:02.704Z,12.85
2022-10-19T09:32:39.315Z,12.88
2022-10-19T09:35:32.538Z,12.91
2022-10-19T09:38:01.332Z,12.92
2022-10-19T09:40:30.912Z,12.93
2022-10-19T09:42:59.721Z,13.00
2022-10-19T09:45:42.847Z,13.03
2022-10-19T09:48:50.443Z,13.03
2022-10-19T09:51:20.058Z,13.06
2022-10-19T09:53:52.527Z,13.06
2022-10-19T09:56:26.240Z,13.06
2022-10-19T09:58:57.635Z,13.04
2022-10-19T10:01:42.917Z,13.02
2022-10-19T10:04:17.375Z,12.98
2022-10-19T10:06:48.894Z,12.95
2022-10-19T10:09:26.522Z,12.93
2022-10-19T10:11:59.060Z,12.89
2022-10-19T10:14:35.159Z,12.84
2022-10-19T10:17:23.577Z,12.81
2022-10-19T10:19:57.823Z,12.76
2022-10-19T10:22:32.646Z,12.70
2022-10-19T10:25:01.590Z,12.68
2022-10-19T10:27:32.245Z,12.67
2022-10-19T10:30:09.871Z,12.66
2022-10-19T10:32:45.860Z,12.63
2022-10-19T10:35:33.251Z,12.62
2022-10-19T10:38:09.003Z,12.61
2022-10-19T10:40:38.817Z,12.58
2022-10-19T10:43:15.079Z,12.55
2022-10-19T10:45:53.391Z,12.52
2022-10-19T10:48:30.679Z,12.49
2022-10-19T10:51:01.310Z,12.47
2022-10-19T10:53:39.518Z,12.48
2022-10-19T10:56:27.251Z,12.49
2022-10-19T10:59:10.786Z,12.49
2022-10-19T11:01:57.051Z,12.50
2022-10-19T11:04:31.709Z,12.53
2022-10-19T11:07:05.412Z,12.56
2022-10-19T11:09:42.699Z,12.58
2022-10-19T11:12:16.506Z,12.59
2022-10-19T11:14:49.695Z,12.60
2022-10-19T11:17:22.990Z,12.65
2022-10-19T11:19:51.779Z,12.67
2022-10-19T11:22:28.863Z,12.67
2022-10-19T11:25:18.437Z,12.69
2022-10-19T11:28:14.261Z,12.71
2022-10-19T11:31:12.643Z,12.73
2022-10-19T11:33:53.615Z,12.76
2022-10-19T11:36:47.056Z,12.75
2022-10-19T11:39:42.086Z,12.76
2022-10-19T11:42:16.093Z,12.78
2022-10-19T11:44:53.381Z,12.81
2022-10-19T11:47:43.469Z,12.83
2022-10-19T11:50:20.555Z,12.87
2022-10-19T11:53:27.330Z,12.91
2022-10-19T11:56:08.406Z,12.93
2022-10-19T11:58:50.404Z,12.90
2022-10-19T12:01:33.630Z,12.90
2022-10-19T12:04:16.552Z,12.89
2022-10-19T12:07:04.385Z,12.88
2022-10-19T12:09:44.746Z,12.86
2022-10-19T12:12:39.235Z,12.83
2022-10-19T12:15:33.726Z,12.78
2022-10-19T12:18:09.992Z,12.76
2022-10-19T12:20:49.839Z,12.75
2022-10-19T12:23:39.824Z,12.72
2022-10-19T12:26:11.515Z,12.71
2022-10-19T12:28:42.006Z,12.68
2022-10-19T12:31:12.029Z,12.66
2022-10-19T12:33:47.641Z,12.64
2022-10-19T12:36:46.978Z,12.64
2022-10-19T12:39:34.913Z,12.65
2022-10-19T12:42:12.100Z,12.62
2022-10-19T12:45:05.877Z,12.61
2022-10-19T12:47:34.613Z,12.62
2022-10-19T12:50:02.942Z,12.61
2022-10-19T12:52:48.518Z,12.62
2022-10-19T12:55:27.240Z,12.60
2022-10-19T12:58:00.533Z,12.60
2022-10-19T13:00:34.833Z,12.61
2022-10-19T13:03:07.838Z,12.61
2022-10-19T13:05:36.349Z,12.61
2022-10-19T13:08:09.240Z,12.62
2022-10-19T13:10:40.174Z,12.62
2022-10-19T13:13:46.614Z,12.61
2022-10-19T13:16:38.663Z,12.61
2022-10-19T13:19:12.349Z,12.60
2022-10-19T13:21:51.892Z,12.60
2022-10-19T13:24:32.394Z,12.59
2022-10-19T13:27:03.500Z,12.60
2022-10-19T13:29:37.308Z,12.61
2022-10-19T13:32:41.690Z,12.61
2022-10-19T13:35:31.694Z,12.62
2022-10-19T13:38:15.152Z,12.63
2022-10-19T13:40:48.949Z,12.61
2022-10-19T13:43:47.533Z,12.61
2022-10-19T13:46:38.850Z,12.61
2022-10-19T13:49:32.619Z,12.63
2022-10-19T13:52:38.686Z,12.62
2022-10-19T13:55:25.292Z,12.60
2022-10-19T13:58:16.198Z,12.58
2022-10-19T14:00:58.402Z,12.55
2022-10-19T14:03:35.791Z,12.50
2022-10-19T14:06:24.678Z,12.43
2022-10-19T14:09:33.683Z,12.37
2022-10-19T14:12:29.884Z,12.29
2022-10-19T14:14:58.599Z,12.27
2022-10-19T14:17:34.166Z,12.23
2022-10-19T14:20:04.237Z,12.18
2022-10-19T14:22:34.318Z,12.15
2022-10-19T14:25:18.241Z,12.12
2022-10-19T14:27:48.344Z,12.09
2022-10-19T14:30:24.609Z,12.09
2022-10-19T14:32:56.875Z,12.08
2022-10-19T14:35:32.117Z,12.08
2022-10-19T14:38:00.701Z,12.12
2022-10-19T14:40:42.702Z,12.12
2022-10-19T14:43:28.895Z,12.09
2022-10-19T14:46:06.394Z,12.07
2022-10-19T14:48:37.020Z,12.04
2022-10-19T14:51:17.275Z,11.98
2022-10-19T14:53:58.351Z,11.92
2022-10-19T14:56:54.214Z,11.89
2022-10-19T14:59:31.293Z,11.83
2022-10-19T15:02:04.252Z,11.76
2022-10-19T15:04:38.154Z,11.75
2022-10-19T15:07:18.936Z,11.75
2022-10-19T15:09:57.026Z,11.73
2022-10-19T15:12:39.192Z,11.78
2022-10-19T15:15:15.492Z,11.79
2022-10-19T15:18:01.852Z,11.78
2022-10-19T15:20:49.486Z,11.76
2022-10-19T15:23:35.322Z,11.72
2022-10-19T15:26:20.664Z,11.69
2022-10-19T15:28:49.783Z,11.68
2022-10-19T15:31:17.751Z,11.71
2022-10-19T15:33:52.151Z,11.68
2022-10-19T15:36:22.089Z,11.64
2022-10-19T15:39:25.246Z,11.60
2022-10-19T15:41:53.874Z,11.59
2022-10-19T15:44:43.132Z,11.58
2022-10-19T15:47:20.303Z,11.54
2022-10-19T15:49:54.532Z,11.53
2022-10-19T15:52:27.008Z,11.51
2022-10-19T15:54:57.536Z,11.52
2022-10-19T15:57:31.786Z,11.47
2022-10-19T16:00:07.969Z,11.42
2022-10-19T16:02:36.086Z,11.35
2022-10-19T16:05:08.199Z,11.33
2022-10-19T16:07:39.438Z,11.34
2022-10-19T16:10:14.638Z,11.34
2022-10-19T16:12:42.914Z,11.33
2022-10-19T16:15:23.581Z,11.34
2022-10-19T16:17:58.715Z,11.35
2022-10-19T16:20:28.939Z,11.37
2022-10-19T16:22:57.733Z,11.40
2022-10-19T16:25:28.051Z,11.37
2022-10-19T16:27:56.019Z,11.32
2022-10-19T16:30:24.607Z,11.28
2022-10-19T16:32:52.674Z,11.28
2022-10-19T16:35:20.646Z,11.26
2022-10-19T16:37:48.612Z,11.22
2022-10-19T16:40:16.684Z,11.26
2022-10-19T16:42:44.653Z,11.24
2022-10-19T16:45:12.825Z,11.19
2022-10-19T16:47:40.784Z,11.17
2022-10-19T16:50:11.243Z,11.11
2022-10-19T16:52:39.474Z,11.06
2022-10-19T16:55:08.437Z,11.05
2022-10-19T16:57:37.278Z,11.08
2022-10-19T17:00:07.085Z,11.04
2022-10-19T17:02:35.572Z,10.99
2022-10-19T17:05:04.053Z,10.97
2022-10-19T17:07:32.023Z,10.94
2022-10-19T17:10:00.028Z,10.91
2022-10-19T17:12:28.063Z,10.89
2022-10-19T17:15:11.628Z,10.90
2022-10-19T17:17:43.972Z,10.88
2022-10-19T17:20:11.971Z,10.87
2022-10-19T17:22:40.009Z,10.89
2022-10-19T17:25:09.897Z,10.88
2022-10-19T17:27:37.992Z,10.84
2022-10-19T17:30:06.991Z,10.88
2022-10-19T17:32:35.861Z,10.90
2022-10-19T17:35:04.627Z,10.89
2022-10-19T17:37:32.754Z,10.89
2022-10-19T17:40:01.014Z,10.86
2022-10-19T17:42:29.292Z,10.84
2022-10-19T17:44:57.364Z,10.88
2022-10-19T17:47:25.330Z,10.95
2022-10-19T17:49:53.402Z,10.94
2022-10-19T17:52:21.576Z,10.89
2022-10-19T17:55:11.308Z,10.82
2022-10-19T17:57:37.701Z,10.76
2022-10-19T18:00:07.500Z,10.70
2022-10-19T18:02:40.839Z,10.65
2022-10-19T18:05:09.462Z,10.70
2022-10-19T18:07:37.668Z,10.70
2022-10-19T18:10:06.337Z,10.68
2022-10-19T18:12:34.409Z,10.69
2022-10-19T18:15:02.402Z,10.69
2022-10-19T18:17:30.551Z,10.65
2022-10-19T18:19:58.521Z,10.61
2022-10-19T18:22:26.899Z,10.65
2022-10-19T18:24:54.970Z,10.63
2022-10-19T18:27:23.043Z,10.61
2022-10-19T18:29:52.170Z,10.57
2022-10-19T18:32:20.210Z,10.50
2022-10-19T18:34:48.407Z,10.46
2022-10-19T18:37:16.394Z,10.44
2022-10-19T18:39:44.730Z,10.47
2022-10-19T18:42:13.005Z,10.44
2022-10-19T18:44:40.975Z,10.39
2022-10-19T18:47:09.047Z,10.33
2022-10-19T18:49:37.222Z,10.26
2022-10-19T18:52:05.496Z,10.17
2022-10-19T18:54:33.776Z,10.09
2022-10-19T18:57:02.027Z,10.10
2022-10-19T18:59:30.238Z,10.08
2022-10-19T19:01:58.334Z,10.04
2022-10-19T19:04:26.467Z,10.00
2022-10-19T19:06:54.450Z,9.97
2022-10-19T19:09:22.508Z,9.93
2022-10-19T19:11:51.707Z,9.93
2022-10-19T19:14:24.182Z,9.95
2022-10-19T19:16:52.481Z,9.94
2022-10-19T19:19:20.739Z,9.90
2022-10-19T19:21:49.992Z,9.94
2022-10-19T19:24:20.438Z,9.95
2022-10-19T19:26:52.422Z,9.93
2022-10-19T19:29:21.722Z,9.91
2022-10-19T19:31:50.420Z,9.91
2022-10-19T19:34:18.480Z,9.97
2022-10-19T19:36:48.410Z,9.98
2022-10-19T19:39:20.341Z,9.93
2022-10-19T19:41:50.051Z,9.89
2022-10-19T19:44:18.969Z,9.87
2022-10-19T19:46:47.029Z,9.85
2022-10-19T19:49:15.099Z,9.82
2022-10-19T19:51:43.273Z,9.81
2022-10-19T19:54:11.856Z,9.79
2022-10-19T19:56:42.297Z,9.82
2022-10-19T19:59:12.712Z,9.77
2022-10-19T20:01:41.869Z,9.74
2022-10-19T20:04:11.001Z,9.73
2022-10-19T20:06:40.425Z,9.73
2022-10-19T20:09:08.974Z,9.70
2022-10-19T20:11:41.243Z,9.66
2022-10-19T20:14:11.993Z,9.61
2022-10-19T20:16:40.269Z,9.56
2022-10-19T20:19:13.668Z,9.54
2022-10-19T20:21:41.739Z,9.49
2022-10-19T20:24:10.525Z,9.41
2022-10-19T20:26:38.480Z,9.34
2022-10-19T20:29:06.776Z,9.26
2022-10-19T20:31:39.639Z,9.18
2022-10-19T20:34:14.059Z,9.12
2022-10-19T20:36:42.524Z,9.11
2022-10-19T20:39:11.023Z,9.06
2022-10-19T20:41:39.106Z,9.02
2022-10-19T20:44:07.383Z,9.01
2022-10-19T20:46:37.206Z,9.05
2022-10-19T20:49:05.679Z,9.02
2022-10-19T20:51:37.098Z,8.99
2022-10-19T20:54:07.326Z,8.96
2022-10-19T20:56:37.263Z,8.90
2022-10-19T20:59:08.103Z,8.85
2022-10-19T21:01:38.274Z,8.83
2022-10-19T21:04:08.554Z,8.82
2022-10-19T21:06:45.626Z,8.80
2022-10-19T21:09:16.651Z,8.79
2022-10-19T21:11:46.306Z,8.80
2022-10-19T21:14:17.449Z,8.76
2022-10-19T21:16:45.795Z,8.69
2022-10-19T21:19:17.349Z,8.63
2022-10-19T21:21:48.980Z,8.56
2022-10-19T21:24:18.818Z,8.51
2022-10-19T21:26:47.849Z,8.48
2022-10-19T21:29:17.242Z,8.42
2022-10-19T21:31:48.925Z,8.37
2022-10-19T21:34:21.140Z,8.30
2022-10-19T21:36:49.207Z,8.29
2022-10-19T21:39:18.407Z,8.35
2022-10-19T21:41:47.203Z,8.36
2022-10-19T21:44:17.313Z,8.33
2022-10-19T21:46:47.987Z,8.31
2022-10-19T21:49:16.544Z,8.30
2022-10-19T21:51:57.051Z,8.29
2022-10-19T21:54:25.574Z,8.30
2022-10-19T21:56:55.934Z,8.29
2022-10-19T21:59:24.890Z,8.23
2022-10-19T22:01:55.056Z,8.16
2022-10-19T22:04:24.514Z,8.13
2022-10-19T22:06:52.593Z,8.18
2022-10-19T22:09:22.193Z,8.20
2022-10-19T22:11:50.368Z,8.16
2022-10-19T22:14:18.624Z,8.12
2022-10-19T22:16:47.020Z,8.10
2022-10-19T22:19:15.298Z,8.08
2022-10-19T22:21:43.370Z,8.01
2022-10-19T22:24:14.698Z,7.97
2022-10-19T22:26:50.861Z,7.90
2022-10-19T22:29:19.363Z,7.80
2022-10-19T22:31:47.535Z,7.72
2022-10-19T22:34:17.127Z,7.73
2022-10-19T22:36:45.931Z,7.72
2022-10-19T22:39:14.615Z,7.66
2022-10-19T22:41:42.583Z,7.65
2022-10-19T22:44:10.569Z,7.61
2022-10-19T22:46:38.626Z,7.56
2022-10-19T22:49:06.622Z,7.54
2022-10-19T22:51:34.869Z,7.50
2022-10-19T22:54:03.043Z,7.46
2022-10-19T22:56:31.015Z,7.44
2022-10-19T22:59:04.102Z,7.45
2022-10-19T23:01:33.039Z,7.38
2022-10-19T23:04:01.267Z,7.31
2022-10-19T23:06:30.055Z,7.26
2022-10-19T23:08:58.102Z,7.26
2022-10-19T23:11:26.392Z,7.23
2022-10-19T23:13:54.381Z,7.24
2022-10-19T23:16:22.375Z,7.30
2022-10-19T23:18:50.518Z,7.35
2022-10-19T23:21:19.406Z,7.49
2022-10-19T23:23:47.376Z,7.58
2022-10-19T23:26:18.211Z,7.65
2022-10-19T23:28:49.149Z,7.72
2022-10-19T23:31:25.730Z,7.76
2022-10-19T23:33:54.564Z,7.77
2022-10-19T23:36:25.855Z,7.76
2022-10-19T23:38:55.465Z,7.77
2022-10-19T23:41:23.643Z,7.70
2022-10-19T23:43:51.997Z,7.62
2022-10-19T23:46:20.189Z,7.55
2022-10-19T23:48:48.282Z,7.46
2022-10-19T23:51:19.611Z,7.41
2022-10-19T23:53:49.625Z,7.42
2022-10-19T23:56:24.048Z,7.38
2022-10-19T23:58:53.555Z,7.33
